ROMMA est une association bénévole à but non lucratif. Votre soutien est indispensable : ADHERER à ROMMA ou FAIRE un DON

St-Etienne-du-Bois - (01, Ain)

La Bresse (243 m)   Longitude: 5° 16' 47'' E   Latitude: 46° 17' 46'' N Station partenaire n°17
 

Détail journalier du     <<     >>

Température Precipitation Humidité Pression Vent Dir Rafale Dir. rafale Ensol.
Heure (°C) (mm) (%) (hPa) (km/h) (km/h) (min)
01:00 8.90919972SSO10SSO0
02:00 10.50.2929976SSO18SSO0
03:00 9.90929977SSO19SSO0
04:00 9.30939961SSO10SSO0
05:00 8.70939961SSO10SSO0
06:00 8.50949961SSO10SSO0
07:00 10.10899964SSO24S0
08:00 10.30899968SSO21SSO0
09:00 10.60899977SSO23SSO0
10:00 11.408799610SSO29SSO15
11:00 12.408399615SSO39S25
12:00 13.607999616SSO32S55
13:00 13.407699513SSO34SSO15
14:00 13.907299512SO32SO15
15:00 13.20759959SO24SO15
16:00 12.30769958SSO24SSO10
17:00 11.20839964SSO21SE10
18:00 10.20869976SSO23SO0
19:00 9.40.6939981---16SO0
20:00 8.829499803SO0
21:00 8.709699900---0
22:00 8.709699900---0
23:00 9.01.49610001SO6SO0
minuit 8.51.49610004SSO10SO0

Graphique du 05-11-2019

 

Serveur OMMA